createdAt,value
2022-10-04T00:00:36.666Z,5.10
2022-10-04T00:03:43.043Z,4.50
2022-10-04T00:06:49.306Z,4.30
2022-10-04T00:10:32.844Z,3.83
2022-10-04T00:13:37.383Z,6.53
2022-10-04T00:16:41.602Z,9.40
2022-10-04T00:19:47.024Z,4.37
2022-10-04T00:23:33.847Z,7.57
2022-10-04T00:26:35.465Z,4.13
2022-10-04T00:29:40.292Z,8.87
2022-10-04T00:32:41.893Z,6.20
2022-10-04T00:35:49.426Z,3.03
2022-10-04T00:39:09.173Z,6.17
2022-10-04T00:42:28.837Z,4.93
2022-10-04T00:45:45.990Z,6.47
2022-10-04T00:48:58.932Z,3.33
2022-10-04T00:52:12.192Z,7.17
2022-10-04T00:55:33.184Z,8.23
2022-10-04T00:58:57.301Z,7.27
2022-10-04T01:02:44.167Z,6.33
2022-10-04T01:05:51.414Z,3.03
2022-10-04T01:08:56.316Z,10.33
2022-10-04T01:12:14.071Z,3.13
2022-10-04T01:15:21.748Z,3.57
2022-10-04T01:18:23.347Z,8.47
2022-10-04T01:21:31.344Z,7.70
2022-10-04T01:24:43.676Z,8.27
2022-10-04T01:27:45.489Z,5.50
2022-10-04T01:30:47.447Z,5.17
2022-10-04T01:33:49.175Z,7.83
2022-10-04T01:36:54.340Z,5.87
2022-10-04T01:39:56.121Z,4.43
2022-10-04T01:43:04.767Z,5.03
2022-10-04T01:46:32.945Z,4.57
2022-10-04T01:49:38.744Z,2.80
2022-10-04T01:52:55.871Z,4.73
2022-10-04T01:56:20.507Z,5.93
2022-10-04T01:59:27.116Z,10.00
2022-10-04T02:02:45.799Z,8.63
2022-10-04T02:05:54.163Z,4.20
2022-10-04T02:08:57.383Z,4.97
2022-10-04T02:11:59.601Z,4.17
2022-10-04T02:15:06.161Z,4.93
2022-10-04T02:18:20.677Z,6.73
2022-10-04T02:21:23.926Z,7.60
2022-10-04T02:24:26.242Z,4.73
2022-10-04T02:27:29.952Z,7.77
2022-10-04T02:30:44.752Z,3.83
2022-10-04T02:33:49.887Z,8.87
2022-10-04T02:36:52.490Z,7.63
2022-10-04T02:40:02.973Z,4.67
2022-10-04T02:43:12.295Z,5.60
2022-10-04T02:46:36.659Z,5.57
2022-10-04T02:49:44.584Z,6.70
2022-10-04T02:52:53.267Z,4.67
2022-10-04T02:55:56.127Z,7.30
2022-10-04T02:59:02.497Z,7.50
2022-10-04T03:02:28.736Z,5.17
2022-10-04T03:05:31.538Z,11.60
2022-10-04T03:08:44.905Z,4.83
2022-10-04T03:11:48.174Z,7.13
2022-10-04T03:14:53.530Z,10.07
2022-10-04T03:17:55.442Z,5.17
2022-10-04T03:20:57.615Z,6.63
2022-10-04T03:24:01.017Z,4.63
2022-10-04T03:27:09.034Z,4.93
2022-10-04T03:30:15.355Z,4.60
2022-10-04T03:33:26.051Z,5.23
2022-10-04T03:36:28.082Z,6.13
2022-10-04T03:39:38.239Z,7.67
2022-10-04T03:42:40.691Z,4.37
2022-10-04T03:45:42.515Z,10.83
2022-10-04T03:48:50.024Z,5.93
2022-10-04T03:51:52.277Z,5.40
2022-10-04T03:54:59.536Z,7.87
2022-10-04T03:58:02.044Z,12.50
2022-10-04T04:01:19.573Z,4.43
2022-10-04T04:04:22.112Z,8.67
2022-10-04T04:07:31.046Z,11.17
2022-10-04T04:10:41.894Z,12.33
2022-10-04T04:14:04.053Z,8.13
2022-10-04T04:17:28.972Z,7.57
2022-10-04T04:20:34.567Z,9.63
2022-10-04T04:23:44.419Z,5.63
2022-10-04T04:26:50.165Z,4.47
2022-10-04T04:29:55.383Z,8.20
2022-10-04T04:33:03.167Z,10.33
2022-10-04T04:36:12.045Z,9.67
2022-10-04T04:39:40.737Z,4.63
2022-10-04T04:42:42.869Z,7.30
2022-10-04T04:45:45.333Z,7.93
2022-10-04T04:48:49.534Z,5.53
2022-10-04T04:51:52.414Z,6.03
2022-10-04T04:54:55.160Z,7.70
2022-10-04T04:57:58.734Z,4.63
2022-10-04T05:01:23.339Z,7.07
2022-10-04T05:04:26.214Z,4.10
2022-10-04T05:07:29.411Z,3.23
2022-10-04T05:10:33.844Z,9.67
2022-10-04T05:13:44.513Z,11.00
2022-10-04T05:16:54.407Z,11.70
2022-10-04T05:19:59.097Z,8.17
2022-10-04T05:23:00.792Z,10.97
2022-10-04T05:26:04.173Z,7.80
2022-10-04T05:29:17.159Z,8.80
2022-10-04T05:32:41.571Z,9.90
2022-10-04T05:36:20.081Z,8.73
2022-10-04T05:39:38.586Z,9.07
2022-10-04T05:42:47.765Z,22.37
2022-10-04T05:46:19.293Z,10.77
2022-10-04T05:49:23.244Z,8.20
2022-10-04T05:52:36.545Z,10.50
2022-10-04T05:55:55.715Z,12.17
2022-10-04T05:59:19.039Z,9.83
2022-10-04T06:02:44.052Z,11.87
2022-10-04T06:06:00.471Z,8.57
2022-10-04T06:09:15.148Z,10.17
2022-10-04T06:12:44.621Z,9.43
2022-10-04T06:15:56.217Z,8.90
2022-10-04T06:19:18.028Z,6.03
2022-10-04T06:22:22.581Z,9.73
2022-10-04T06:25:35.919Z,9.50
2022-10-04T06:28:45.749Z,8.57
2022-10-04T06:32:05.304Z,8.97
2022-10-04T06:35:38.071Z,11.60
2022-10-04T06:39:04.086Z,10.33
2022-10-04T06:42:18.153Z,6.60
2022-10-04T06:45:29.561Z,7.73
2022-10-04T06:49:08.492Z,9.83
2022-10-04T06:52:37.351Z,11.43
2022-10-04T06:56:04.601Z,8.47
2022-10-04T06:59:36.165Z,11.70
2022-10-04T07:02:41.434Z,11.77
2022-10-04T07:05:58.954Z,11.47
2022-10-04T07:09:03.334Z,13.57
2022-10-04T07:12:08.420Z,16.03
2022-10-04T07:15:33.044Z,7.63
2022-10-04T07:18:55.805Z,7.10
2022-10-04T07:22:31.144Z,8.30
2022-10-04T07:25:42.237Z,11.87
2022-10-04T07:29:04.362Z,7.43
2022-10-04T07:32:05.973Z,6.90
2022-10-04T07:35:12.789Z,10.10
2022-10-04T07:38:15.852Z,5.87
2022-10-04T07:41:47.877Z,11.17
2022-10-04T07:45:21.268Z,6.47
2022-10-04T07:48:26.343Z,10.50
2022-10-04T07:51:36.993Z,7.57
2022-10-04T07:55:00.962Z,11.13
2022-10-04T07:58:23.697Z,10.57
2022-10-04T08:01:47.313Z,9.77
2022-10-04T08:05:26.612Z,10.10
2022-10-04T08:08:39.187Z,11.67
2022-10-04T08:11:51.164Z,11.73
2022-10-04T08:15:14.782Z,9.90
2022-10-04T08:18:30.176Z,9.23
2022-10-04T08:22:00.711Z,7.40
2022-10-04T08:25:37.106Z,10.97
2022-10-04T08:29:06.521Z,7.10
2022-10-04T08:32:32.574Z,13.60
2022-10-04T08:35:39.385Z,9.33
2022-10-04T08:38:42.953Z,7.53
2022-10-04T08:41:53.933Z,7.17
2022-10-04T08:45:24.724Z,11.70
2022-10-04T08:48:58.815Z,10.33
2022-10-04T08:52:37.683Z,7.93
2022-10-04T08:56:00.619Z,8.20
2022-10-04T08:59:35.676Z,9.73
2022-10-04T09:03:05.287Z,5.50
2022-10-04T09:06:28.460Z,12.47
2022-10-04T09:09:46.397Z,15.23
2022-10-04T09:13:05.007Z,8.03
2022-10-04T09:16:37.192Z,7.07
2022-10-04T09:20:33.442Z,10.97
2022-10-04T09:23:31.536Z,12.03
2022-10-04T09:26:52.967Z,9.57
2022-10-04T09:29:57.334Z,10.97
2022-10-04T09:33:41.685Z,10.00
2022-10-04T09:37:04.872Z,6.07
2022-10-04T09:40:28.715Z,5.23
2022-10-04T09:43:49.092Z,7.50
2022-10-04T09:47:01.844Z,7.40
2022-10-04T09:50:35.393Z,8.50
2022-10-04T09:53:37.607Z,7.20
2022-10-04T09:57:15.685Z,4.97
2022-10-04T10:00:25.180Z,8.17
2022-10-04T10:03:56.612Z,10.47
2022-10-04T10:07:20.513Z,3.93
2022-10-04T10:10:53.123Z,7.45
2022-10-04T10:14:38.159Z,4.75
2022-10-04T10:17:57.927Z,5.60
2022-10-04T10:21:13.884Z,2.88
2022-10-04T10:24:24.774Z,4.50
2022-10-04T10:27:38.914Z,7.57
2022-10-04T10:30:57.716Z,7.50
2022-10-04T10:34:25.461Z,8.23
2022-10-04T10:37:30.871Z,4.73
2022-10-04T10:40:54.220Z,7.67
2022-10-04T10:44:10.166Z,5.63
2022-10-04T10:47:31.011Z,6.87
2022-10-04T10:51:03.260Z,5.20
2022-10-04T10:54:13.847Z,3.60
2022-10-04T10:57:29.426Z,6.40
2022-10-04T11:01:01.921Z,9.60
2022-10-04T11:04:31.438Z,8.17
2022-10-04T11:07:51.935Z,5.60
2022-10-04T11:11:15.331Z,8.23
2022-10-04T11:14:19.883Z,7.93
2022-10-04T11:17:58.004Z,9.53
2022-10-04T11:21:29.322Z,4.23
2022-10-04T11:24:59.363Z,6.30
2022-10-04T11:28:28.858Z,3.67
2022-10-04T11:31:36.471Z,6.37
2022-10-04T11:34:50.739Z,5.80
2022-10-04T11:38:18.454Z,5.13
2022-10-04T11:41:47.543Z,8.20
2022-10-04T11:45:08.179Z,6.63
2022-10-04T11:48:11.226Z,10.97
2022-10-04T11:51:37.018Z,8.40
2022-10-04T11:54:57.666Z,7.57
2022-10-04T11:58:16.847Z,3.17
2022-10-04T12:01:47.621Z,5.00
2022-10-04T12:05:27.817Z,6.30
2022-10-04T12:08:41.576Z,3.87
2022-10-04T12:12:01.980Z,6.47
2022-10-04T12:15:13.664Z,4.33
2022-10-04T12:18:32.796Z,3.30
2022-10-04T12:21:50.852Z,6.40
2022-10-04T12:25:11.991Z,6.57
2022-10-04T12:28:47.496Z,5.40
2022-10-04T12:31:50.666Z,5.57
2022-10-04T12:35:16.654Z,6.23
2022-10-04T12:38:27.224Z,2.63
2022-10-04T12:41:31.416Z,5.13
2022-10-04T12:44:44.804Z,4.90
2022-10-04T12:48:05.661Z,4.37
2022-10-04T12:51:30.097Z,4.50
2022-10-04T12:54:59.607Z,5.73
2022-10-04T12:58:10.784Z,5.17
2022-10-04T13:01:41.248Z,6.50
2022-10-04T13:05:09.700Z,5.33
2022-10-04T13:08:20.237Z,8.70
2022-10-04T13:11:27.636Z,3.93
2022-10-04T13:14:35.898Z,4.93
2022-10-04T13:17:59.553Z,7.77
2022-10-04T13:21:03.764Z,4.83
2022-10-04T13:24:21.801Z,8.50
2022-10-04T13:27:38.563Z,4.80
2022-10-04T13:30:50.566Z,4.30
2022-10-04T13:34:11.829Z,2.40
2022-10-04T13:37:40.321Z,3.20
2022-10-04T13:40:50.587Z,5.23
2022-10-04T13:44:27.017Z,8.17
2022-10-04T13:47:46.222Z,3.73
2022-10-04T13:51:06.137Z,4.45
2022-10-04T13:54:52.183Z,3.15
2022-10-04T13:58:31.903Z,2.85
2022-10-04T14:01:54.589Z,7.30
2022-10-04T14:05:11.301Z,5.65
2022-10-04T14:08:25.242Z,5.30
2022-10-04T14:12:04.184Z,6.35
2022-10-04T14:15:34.128Z,5.28
2022-10-04T14:18:50.748Z,9.85
2022-10-04T14:22:16.552Z,2.95
2022-10-04T14:25:30.910Z,5.18
2022-10-04T14:28:48.097Z,2.22
2022-10-04T14:32:14.133Z,6.57
2022-10-04T14:35:21.401Z,3.70
2022-10-04T14:39:01.110Z,4.38
2022-10-04T14:42:31.109Z,5.27
2022-10-04T14:45:43.381Z,4.40
2022-10-04T14:49:06.450Z,4.10
2022-10-04T14:52:32.351Z,3.92
2022-10-04T14:56:06.256Z,4.78
2022-10-04T14:59:42.879Z,2.50
2022-10-04T15:03:15.082Z,8.00
2022-10-04T15:06:49.480Z,3.80
2022-10-04T15:10:19.074Z,4.35
2022-10-04T15:13:26.457Z,3.50
2022-10-04T15:16:59.365Z,5.22
2022-10-04T15:20:19.864Z,3.22
2022-10-04T15:23:34.888Z,8.27
2022-10-04T15:26:54.308Z,6.10
2022-10-04T15:30:23.044Z,8.00
2022-10-04T15:33:46.915Z,3.40
2022-10-04T15:37:09.934Z,2.23
2022-10-04T15:40:37.777Z,2.17
2022-10-04T15:44:13.939Z,4.37
2022-10-04T15:47:36.034Z,7.40
2022-10-04T15:51:12.789Z,4.17
2022-10-04T15:54:52.100Z,5.73
2022-10-04T15:58:16.406Z,7.03
2022-10-04T16:01:38.860Z,4.70
2022-10-04T16:04:46.388Z,6.60
2022-10-04T16:08:13.786Z,4.47
2022-10-04T16:11:50.751Z,6.90
2022-10-04T16:14:57.213Z,4.60
2022-10-04T16:18:23.341Z,7.83
2022-10-04T16:21:42.310Z,5.03
2022-10-04T16:24:50.175Z,7.20
2022-10-04T16:27:55.883Z,3.77
2022-10-04T16:31:36.711Z,4.83
2022-10-04T16:34:50.278Z,5.57
2022-10-04T16:38:16.918Z,5.30
2022-10-04T16:41:35.837Z,9.27
2022-10-04T16:44:56.021Z,4.47
2022-10-04T16:48:15.005Z,7.20
2022-10-04T16:51:16.613Z,6.53
2022-10-04T16:54:39.414Z,8.97
2022-10-04T16:57:43.292Z,6.83
2022-10-04T17:00:46.437Z,6.90
2022-10-04T17:04:03.722Z,7.00
2022-10-04T17:07:23.128Z,6.73
2022-10-04T17:10:46.381Z,6.27
2022-10-04T17:13:59.583Z,6.43
2022-10-04T17:17:20.508Z,8.77
2022-10-04T17:20:29.379Z,9.83
2022-10-04T17:23:46.111Z,10.13
2022-10-04T17:27:13.428Z,13.97
2022-10-04T17:30:46.697Z,11.70
2022-10-04T17:34:31.112Z,12.50
2022-10-04T17:37:47.996Z,8.17
2022-10-04T17:41:00.070Z,8.50
2022-10-04T17:44:34.593Z,9.40
2022-10-04T17:48:04.101Z,8.53
2022-10-04T17:51:42.403Z,15.93
2022-10-04T17:55:13.944Z,9.77
2022-10-04T17:58:42.923Z,5.63
2022-10-04T18:01:49.708Z,10.17
2022-10-04T18:04:57.076Z,7.13
2022-10-04T18:08:07.877Z,10.80
2022-10-04T18:11:32.695Z,10.63
2022-10-04T18:14:37.723Z,8.43
2022-10-04T18:17:48.221Z,11.93
2022-10-04T18:20:55.545Z,17.10
2022-10-04T18:24:16.469Z,14.40
2022-10-04T18:27:22.288Z,7.57
2022-10-04T18:30:24.136Z,9.93
2022-10-04T18:33:48.382Z,7.90
2022-10-04T18:37:05.472Z,8.67
2022-10-04T18:40:17.914Z,10.57
2022-10-04T18:43:40.673Z,11.43
2022-10-04T18:46:46.634Z,9.97
2022-10-04T18:49:51.990Z,15.63
2022-10-04T18:53:22.202Z,9.67
2022-10-04T18:56:24.225Z,10.07
2022-10-04T18:59:47.446Z,7.10
2022-10-04T19:03:19.667Z,7.53
2022-10-04T19:06:33.955Z,11.37
2022-10-04T19:09:57.337Z,9.63
2022-10-04T19:13:16.035Z,7.67
2022-10-04T19:16:35.988Z,16.47
2022-10-04T19:19:39.998Z,16.20
2022-10-04T19:22:53.246Z,22.73
2022-10-04T19:26:33.192Z,20.37
2022-10-04T19:29:53.921Z,17.57
2022-10-04T19:33:14.049Z,22.93
2022-10-04T19:36:39.200Z,18.37
2022-10-04T19:40:24.149Z,16.57
2022-10-04T19:43:42.225Z,15.00
2022-10-04T19:46:49.155Z,19.27
2022-10-04T19:50:07.307Z,22.63
2022-10-04T19:53:28.431Z,21.70
2022-10-04T19:56:35.936Z,21.53
2022-10-04T19:59:40.880Z,16.40
2022-10-04T20:02:48.271Z,21.67
2022-10-04T20:05:53.197Z,18.63
2022-10-04T20:09:17.725Z,20.37
2022-10-04T20:12:35.219Z,18.57
2022-10-04T20:15:37.743Z,23.30
2022-10-04T20:18:41.857Z,17.43
2022-10-04T20:21:43.501Z,15.13
2022-10-04T20:24:45.101Z,12.10
2022-10-04T20:27:46.709Z,14.00
2022-10-04T20:30:54.145Z,11.63
2022-10-04T20:34:15.805Z,19.93
2022-10-04T20:37:19.190Z,12.73
2022-10-04T20:40:23.858Z,16.27
2022-10-04T20:43:26.479Z,20.83
2022-10-04T20:46:38.012Z,13.70
2022-10-04T20:49:43.347Z,13.57
2022-10-04T20:52:48.554Z,11.80
2022-10-04T20:55:53.923Z,11.50
2022-10-04T20:58:59.481Z,16.03
2022-10-04T21:02:06.587Z,15.43
2022-10-04T21:05:24.013Z,10.97
2022-10-04T21:08:27.472Z,21.43
2022-10-04T21:11:44.469Z,16.10
2022-10-04T21:15:21.413Z,15.90
2022-10-04T21:18:24.080Z,10.63
2022-10-04T21:21:47.920Z,12.87
2022-10-04T21:24:49.532Z,10.90
2022-10-04T21:27:51.196Z,10.00
2022-10-04T21:30:52.873Z,7.87
2022-10-04T21:33:54.509Z,9.63
2022-10-04T21:36:56.222Z,9.67
2022-10-04T21:39:58.103Z,7.93
2022-10-04T21:42:59.738Z,9.47
2022-10-04T21:46:01.498Z,10.23
2022-10-04T21:49:04.489Z,12.20
2022-10-04T21:52:06.824Z,12.30
2022-10-04T21:55:10.533Z,10.07
2022-10-04T21:58:12.454Z,9.60
2022-10-04T22:01:14.332Z,8.37
2022-10-04T22:04:16.164Z,7.43
2022-10-04T22:07:17.817Z,13.93
2022-10-04T22:10:19.595Z,11.20
2022-10-04T22:13:21.253Z,17.30
2022-10-04T22:16:23.160Z,10.70
2022-10-04T22:19:24.893Z,7.90
2022-10-04T22:22:29.925Z,8.83
2022-10-04T22:25:31.622Z,16.30
2022-10-04T22:28:33.879Z,10.50
2022-10-04T22:31:36.430Z,8.97
2022-10-04T22:34:40.187Z,10.13
2022-10-04T22:37:42.079Z,13.50
2022-10-04T22:40:43.794Z,7.93
2022-10-04T22:43:47.039Z,12.10
2022-10-04T22:46:52.479Z,11.60
2022-10-04T22:49:57.505Z,11.63
2022-10-04T22:53:05.091Z,9.30
2022-10-04T22:56:07.167Z,11.27
2022-10-04T22:59:14.066Z,12.27
2022-10-04T23:02:18.037Z,10.73
2022-10-04T23:05:20.151Z,10.47
2022-10-04T23:08:21.881Z,15.77
2022-10-04T23:11:23.534Z,14.93
2022-10-04T23:14:25.345Z,9.63
2022-10-04T23:17:34.411Z,9.13
2022-10-04T23:20:36.031Z,9.20
2022-10-04T23:23:37.703Z,10.93
2022-10-04T23:26:40.322Z,8.67
2022-10-04T23:29:42.432Z,7.87
2022-10-04T23:32:46.235Z,13.40
2022-10-04T23:35:49.199Z,13.37
2022-10-04T23:39:00.890Z,9.33
2022-10-04T23:42:30.206Z,10.97
2022-10-04T23:45:32.034Z,13.10
2022-10-04T23:48:33.923Z,10.43
2022-10-04T23:51:35.690Z,10.60
2022-10-04T23:54:37.357Z,16.77
2022-10-04T23:57:39.015Z,12.67
